METAR Data
IDs: Format: Raw Decoded Include TAF

Data at: 0256 UTC 29 May 2022

METAR for:KAUN (Auburn Muni, CA, US)
Text:KAUN 290235Z AUTO 25013KT 10SM BKN050 OVC060 19/08 A2989 RMK A01
Temperature: 19.0°C ( 66°F)
Dewpoint: 8.0°C ( 46°F) [RH = 49%]
Pressure (altimeter):29.89 inches Hg (1012.3 mb)
Winds:from the WSW (250 degrees) at 15 MPH (13 knots; 6.7 m/s)
Visibility:10 or more sm (16+ km)
Ceiling:5000 feet AGL
Clouds: broken clouds at 5000 feet AGL, overcast cloud deck at 6000 feet AGL
QC Flag:automated observation with no human augmentation